Time;durP1;ratioP1;P1;durP2;ratioP2;P2;SDS_P1;SDS_P2;PMS_P1;PMS_P2;Temp;Humidity;BMP_temperature;BMP_pressure;BME280_temperature;BME280_humidity;BME280_pressure;Samples;Min_cycle;Max_cycle;Signal;HPM_P1;HPM_P2
2020/12/31 00:02:13;;;;;;;3.80;2.40;;;2.40;77.90;;;;;;5052916;28;20017;-78
2020/12/31 00:04:40;;;;;;;3.88;2.63;;;2.50;77.50;;;;;;5053324;28;20079;-78
2020/12/31 00:07:06;;;;;;;3.75;2.38;;;2.60;77.40;;;;;;5053142;28;20039;-78
2020/12/31 00:09:31;;;;;;;4.60;2.92;;;2.60;77.10;;;;;;5053092;28;20025;-78
2020/12/31 00:11:58;;;;;;;4.60;2.40;;;2.60;76.90;;;;;;5052798;28;20024;-77
2020/12/31 00:14:24;;;;;;;6.22;2.60;;;2.50;77.20;;;;;;5052942;28;20527;-78
2020/12/31 00:16:49;;;;;;;7.13;2.90;;;2.60;77.10;;;;;;5035247;28;20017;-78
2020/12/31 00:19:15;;;;;;;6.70;2.90;;;2.50;77.10;;;;;;5052964;28;20468;-78
2020/12/31 00:21:41;;;;;;;5.32;3.72;;;2.50;77.40;;;;;;5035125;28;20502;-78
2020/12/31 00:24:09;;;;;;;6.03;3.60;;;2.40;77.80;;;;;;5052973;28;20066;-78
2020/12/31 00:26:35;;;;;;;5.72;3.20;;;2.30;78.00;;;;;;5053037;28;20044;-78
2020/12/31 00:29:01;;;;;;;5.88;2.85;;;2.30;77.90;;;;;;5052673;28;20029;-78
2020/12/31 00:31:26;;;;;;;7.57;3.22;;;2.30;77.90;;;;;;5052767;28;20082;-78
2020/12/31 00:33:52;;;;;;;4.97;2.83;;;2.30;77.90;;;;;;5034769;28;20064;-78
2020/12/31 00:36:18;;;;;;;5.95;3.33;;;2.40;77.80;;;;;;5034692;28;20099;-78
2020/12/31 00:38:43;;;;;;;6.35;3.20;;;2.30;78.00;;;;;;5049446;28;20792;-78
2020/12/31 00:41:09;;;;;;;4.55;2.83;;;2.30;78.10;;;;;;5049990;28;20024;-78
2020/12/31 00:43:35;;;;;;;5.80;3.13;;;2.30;78.10;;;;;;5052742;28;20479;-78
2020/12/31 00:46:00;;;;;;;6.45;2.80;;;2.30;78.10;;;;;;5052706;28;20232;-77
2020/12/31 00:48:26;;;;;;;4.82;2.70;;;2.20;78.10;;;;;;5052895;28;20028;-77
2020/12/31 00:50:52;;;;;;;4.60;3.30;;;2.20;78.20;;;;;;5052810;28;20102;-77
2020/12/31 00:53:17;;;;;;;5.45;3.40;;;2.10;78.40;;;;;;5052402;28;20438;-77
2020/12/31 00:55:43;;;;;;;7.65;3.90;;;2.10;78.70;;;;;;5052448;28;20100;-78
2020/12/31 00:58:09;;;;;;;6.25;3.50;;;2.00;79.30;;;;;;5050421;28;20407;-77
2020/12/31 01:00:35;;;;;;;5.20;3.80;;;2.00;79.30;;;;;;5052416;28;20048;-78
2020/12/31 01:03:02;;;;;;;4.40;3.17;;;2.00;79.50;;;;;;5052602;28;20031;-78
2020/12/31 01:05:28;;;;;;;3.95;3.10;;;1.90;79.50;;;;;;5052547;28;20021;-78
2020/12/31 01:07:54;;;;;;;6.72;3.67;;;1.90;79.60;;;;;;5051792;28;20368;-77
2020/12/31 01:10:20;;;;;;;5.97;3.47;;;1.90;80.10;;;;;;5034466;28;20049;-78
2020/12/31 01:12:45;;;;;;;7.05;4.10;;;1.80;80.00;;;;;;5052041;28;20523;-78
2020/12/31 01:15:11;;;;;;;7.03;4.15;;;1.70;80.10;;;;;;5052334;28;20364;-77
2020/12/31 01:17:37;;;;;;;6.47;4.05;;;1.80;80.00;;;;;;5052276;28;20487;-77
2020/12/31 01:20:04;;;;;;;6.20;4.38;;;1.80;80.40;;;;;;5034175;28;20017;-76
2020/12/31 01:22:30;;;;;;;6.65;3.85;;;1.70;80.30;;;;;;5052350;28;20029;-77
2020/12/31 01:24:55;;;;;;;6.15;3.22;;;1.60;80.50;;;;;;5052392;28;20035;-77
2020/12/31 01:27:21;;;;;;;7.30;4.15;;;1.50;80.80;;;;;;5052901;28;20502;-77
2020/12/31 01:29:47;;;;;;;4.43;3.15;;;1.40;81.00;;;;;;5053356;28;20071;-77
2020/12/31 01:32:12;;;;;;;4.28;2.92;;;1.40;81.00;;;;;;5052100;28;20051;-78
2020/12/31 01:34:38;;;;;;;7.30;3.50;;;1.50;80.80;;;;;;5052261;28;20037;-78
2020/12/31 01:37:04;;;;;;;5.25;3.05;;;1.50;80.60;;;;;;5052087;28;20036;-77
2020/12/31 01:39:30;;;;;;;6.30;3.75;;;1.40;81.00;;;;;;5052030;28;20116;-77
2020/12/31 01:42:03;;;;;;;4.20;3.15;;;1.30;81.00;;;;;;5051776;28;20108;-77
2020/12/31 01:44:28;;;;;;;4.50;3.40;;;1.20;81.40;;;;;;5034170;28;20028;-77
2020/12/31 01:46:59;;;;;;;5.85;3.65;;;1.10;81.50;;;;;;5034144;28;20120;-77
2020/12/31 01:49:30;;;;;;;5.68;3.60;;;1.00;82.20;;;;;;5051948;28;20025;-77
2020/12/31 01:51:57;;;;;;;7.43;4.40;;;0.90;82.50;;;;;;5052100;28;20060;-77
2020/12/31 01:54:24;;;;;;;6.60;4.53;;;0.90;82.70;;;;;;5051690;28;20048;-76
2020/12/31 01:56:52;;;;;;;8.63;5.25;;;0.80;83.40;;;;;;5051890;28;20017;-77
2020/12/31 01:59:18;;;;;;;6.25;4.35;;;0.60;83.60;;;;;;5051822;28;20402;-77
2020/12/31 02:01:44;;;;;;;10.43;4.20;;;0.50;84.10;;;;;;5051751;28;20025;-77
2020/12/31 02:04:10;;;;;;;6.80;4.03;;;0.50;84.10;;;;;;5051899;28;20029;-78
2020/12/31 02:06:36;;;;;;;6.07;3.20;;;0.40;84.30;;;;;;5051687;28;20025;-77
2020/12/31 02:09:02;;;;;;;5.95;3.67;;;0.40;84.30;;;;;;5051754;28;20033;-77
2020/12/31 02:11:28;;;;;;;5.72;3.70;;;0.40;84.30;;;;;;5051798;28;20472;-77
2020/12/31 02:13:54;;;;;;;5.88;3.30;;;0.30;84.40;;;;;;5030219;28;20049;-77
2020/12/31 02:16:23;;;;;;;5.30;3.63;;;0.30;84.50;;;;;;5030502;28;20029;-77
2020/12/31 02:18:58;;;;;;;5.20;3.67;;;0.20;84.80;;;;;;5030819;28;20021;-77
2020/12/31 02:21:32;;;;;;;6.63;3.97;;;0.30;84.70;;;;;;5035649;28;20045;-77
2020/12/31 02:23:59;;;;;;;4.68;3.40;;;0.30;84.80;;;;;;5035384;28;20047;-77
2020/12/31 02:26:27;;;;;;;4.28;3.25;;;0.30;84.90;;;;;;5035155;28;20468;-76
2020/12/31 02:28:54;;;;;;;6.43;3.75;;;0.30;84.70;;;;;;5035025;28;20095;-77
2020/12/31 02:31:20;;;;;;;6.15;3.65;;;0.30;84.70;;;;;;5035106;28;20025;-76
2020/12/31 02:33:47;;;;;;;5.20;3.38;;;0.30;84.70;;;;;;5035048;28;20048;-77
2020/12/31 02:36:15;;;;;;;5.63;3.60;;;0.20;84.90;;;;;;5034884;28;20462;-77
2020/12/31 02:38:42;;;;;;;7.03;3.67;;;0.20;84.80;;;;;;5033803;28;20079;-77
2020/12/31 02:41:08;;;;;;;9.55;4.13;;;0.20;84.90;;;;;;5030166;28;20112;-77
2020/12/31 02:43:36;;;;;;;3.00;2.70;;;0.10;85.00;;;;;;5034859;28;20516;-78
2020/12/31 02:46:07;;;;;;;7.53;3.65;;;0.10;85.20;;;;;;5035003;28;20452;-78
2020/12/31 02:48:33;;;;;;;4.07;3.15;;;0.10;85.40;;;;;;5034969;28;20039;-78
2020/12/31 02:50:59;;;;;;;4.72;3.67;;;0.00;85.40;;;;;;5034870;28;20112;-77
2020/12/31 02:53:24;;;;;;;4.97;3.40;;;0.00;85.40;;;;;;5034695;28;20113;-77
2020/12/31 02:55:50;;;;;;;5.22;3.97;;;0.00;85.60;;;;;;5034916;28;20045;-76
2020/12/31 02:58:16;;;;;;;3.60;3.08;;;0.00;85.70;;;;;;5034275;28;20032;-76
2020/12/31 03:00:42;;;;;;;5.57;3.47;;;0.00;85.80;;;;;;5034585;28;20108;-76
2020/12/31 03:03:09;;;;;;;4.57;3.33;;;0.00;85.90;;;;;;5034439;28;20117;-75
2020/12/31 03:05:34;;;;;;;8.15;3.95;;;0.00;85.90;;;;;;5034825;28;20033;-76
2020/12/31 03:08:01;;;;;;;4.28;3.28;;;0.00;85.60;;;;;;5033073;28;20026;-76
2020/12/31 03:10:26;;;;;;;6.60;3.42;;;0.00;85.50;;;;;;5034400;28;20041;-76
2020/12/31 03:12:52;;;;;;;6.18;3.05;;;0.00;85.20;;;;;;5032825;28;20053;-76
2020/12/31 03:15:20;;;;;;;12.00;3.47;;;-3276.70;85.40;;;;;;5033100;28;20561;-76
2020/12/31 03:17:46;;;;;;;8.82;4.35;;;-3276.70;85.60;;;;;;5034188;28;20476;-77
2020/12/31 03:20:12;;;;;;;4.53;2.58;;;-3276.70;85.60;;;;;;5034412;28;20059;-77
2020/12/31 03:22:37;;;;;;;3.78;2.92;;;0.00;85.40;;;;;;5034228;28;20026;-77
2020/12/31 03:25:04;;;;;;;8.52;3.72;;;-3276.70;85.20;;;;;;5033952;28;20152;-76
2020/12/31 03:27:30;;;;;;;5.22;3.38;;;-3276.70;85.30;;;;;;5034176;28;20045;-77
2020/12/31 03:29:56;;;;;;;4.35;3.30;;;-3276.70;85.30;;;;;;5033507;28;20042;-76
2020/12/31 03:32:22;;;;;;;6.13;3.13;;;-3276.60;85.40;;;;;;5034129;28;20092;-77
2020/12/31 03:34:48;;;;;;;5.55;3.80;;;-3276.60;85.50;;;;;;5033719;28;20044;-76
2020/12/31 03:37:14;;;;;;;7.35;3.45;;;-3276.60;85.70;;;;;;5033876;28;20032;-76
2020/12/31 03:39:41;;;;;;;7.60;3.33;;;-3276.70;85.70;;;;;;5034026;28;20033;-76
2020/12/31 03:42:07;;;;;;;8.68;3.45;;;-3276.70;85.90;;;;;;5033480;28;20075;-76
2020/12/31 03:44:33;;;;;;;7.25;3.80;;;-3276.70;86.10;;;;;;5033760;28;20029;-76
2020/12/31 03:46:59;;;;;;;3.53;2.83;;;0.00;86.00;;;;;;5033686;28;20026;-76
2020/12/31 03:49:24;;;;;;;5.57;3.20;;;0.10;85.90;;;;;;5033615;28;20415;-77
2020/12/31 03:51:50;;;;;;;3.92;2.92;;;0.10;85.60;;;;;;5033701;28;20029;-77
2020/12/31 03:54:16;;;;;;;3.38;3.05;;;0.30;85.10;;;;;;5033565;28;20547;-77
2020/12/31 03:56:42;;;;;;;5.60;3.65;;;0.40;84.70;;;;;;5033800;28;20037;-76
2020/12/31 03:59:07;;;;;;;7.57;3.40;;;0.40;84.50;;;;;;5033378;28;20487;-76
2020/12/31 04:01:34;;;;;;;5.97;3.92;;;0.40;84.30;;;;;;5032161;28;20029;-76
2020/12/31 04:04:00;;;;;;;6.68;3.80;;;0.40;84.10;;;;;;5033050;28;20472;-76
2020/12/31 04:06:27;;;;;;;5.00;3.33;;;0.30;84.20;;;;;;5033199;28;20377;-77
2020/12/31 04:08:52;;;;;;;4.18;3.28;;;0.10;84.60;;;;;;5033320;28;20033;-76
2020/12/31 04:11:18;;;;;;;6.82;4.30;;;0.00;84.90;;;;;;5033607;28;20022;-77
2020/12/31 04:13:44;;;;;;;7.45;4.05;;;0.00;85.20;;;;;;5047872;28;20052;-76
2020/12/31 04:16:11;;;;;;;9.27;4.90;;;-3276.60;85.60;;;;;;5052840;28;20032;-77
2020/12/31 04:18:37;;;;;;;8.38;5.10;;;-3276.50;85.90;;;;;;5035121;28;20033;-76
2020/12/31 04:21:03;;;;;;;11.05;5.45;;;-3276.40;86.30;;;;;;5053457;28;20033;-76
2020/12/31 04:23:29;;;;;;;6.18;4.38;;;-3276.40;86.50;;;;;;5053490;28;20032;-77
2020/12/31 04:25:54;;;;;;;7.03;4.30;;;-3276.40;86.90;;;;;;5035160;28;20475;-76
2020/12/31 04:28:20;;;;;;;7.18;4.55;;;-3276.50;86.70;;;;;;5052864;28;20057;-76
2020/12/31 04:30:47;;;;;;;7.35;4.93;;;-3276.60;86.40;;;;;;5053158;28;20537;-77
2020/12/31 04:33:13;;;;;;;7.65;5.15;;;-3276.70;86.10;;;;;;5052834;28;20373;-78
2020/12/31 04:35:39;;;;;;;9.18;4.72;;;-3276.70;85.90;;;;;;5052910;28;20036;-77
2020/12/31 04:38:05;;;;;;;8.40;5.00;;;-3276.60;85.70;;;;;;5052569;28;20025;-78
2020/12/31 04:40:31;;;;;;;9.00;4.90;;;-3276.50;85.90;;;;;;5051631;28;20549;-77
2020/12/31 04:42:57;;;;;;;4.38;3.88;;;-3276.40;86.30;;;;;;5042372;28;20082;-77
2020/12/31 04:45:25;;;;;;;7.18;4.53;;;-3276.30;86.50;;;;;;5052609;28;20024;-77
2020/12/31 04:48:10;;;;;;;7.13;4.07;;;-3276.30;86.70;;;;;;5052647;28;20024;-77
2020/12/31 04:50:40;;;;;;;6.43;4.70;;;-3276.20;86.90;;;;;;5034741;28;20032;-77
2020/12/31 04:53:08;;;;;;;8.35;5.55;;;-3276.20;87.10;;;;;;5052469;28;20157;-77
2020/12/31 04:55:44;;;;;;;8.63;4.88;;;-3276.00;87.40;;;;;;5052448;28;20032;-77
2020/12/31 04:58:13;;;;;;;9.43;4.80;;;-3275.90;87.70;;;;;;5052196;28;20510;-77
2020/12/31 05:00:40;;;;;;;9.82;4.25;;;-3275.90;87.80;;;;;;5052378;28;20556;-77
2020/12/31 05:03:06;;;;;;;11.52;5.85;;;-3275.90;88.00;;;;;;5034433;28;20503;-77
2020/12/31 05:05:33;;;;;;;9.40;5.60;;;-3275.90;88.30;;;;;;5034601;28;20032;-77
2020/12/31 05:08:00;;;;;;;7.15;4.95;;;-3275.90;88.20;;;;;;5052194;28;20029;-77
2020/12/31 05:10:26;;;;;;;9.07;5.10;;;-3275.90;88.20;;;;;;5052337;28;20271;-77
2020/12/31 05:13:02;;;;;;;8.52;4.95;;;-3275.90;88.10;;;;;;5052130;28;20120;-77
2020/12/31 05:15:43;;;;;;;8.60;4.75;;;-3276.00;88.10;;;;;;5052237;28;20116;-77
2020/12/31 05:18:22;;;;;;;9.20;6.13;;;-3276.00;88.20;;;;;;5052089;28;20076;-77
2020/12/31 05:20:53;;;;;;;6.53;4.25;;;-3276.10;87.90;;;;;;5052490;28;20029;-77
2020/12/31 05:23:26;;;;;;;5.73;4.23;;;-3276.00;87.60;;;;;;5052273;28;20538;-77
2020/12/31 05:25:52;;;;;;;8.15;4.30;;;-3276.00;87.70;;;;;;5052408;28;20383;-76
2020/12/31 05:28:25;;;;;;;6.97;4.32;;;-3276.00;87.70;;;;;;5034003;28;20029;-76
2020/12/31 05:30:57;;;;;;;6.20;4.68;;;-3275.90;88.00;;;;;;5052155;28;20057;-77
2020/12/31 05:33:36;;;;;;;7.55;4.80;;;-3275.90;88.20;;;;;;5052101;28;20364;-76
2020/12/31 05:36:25;;;;;;;12.10;5.65;;;-3275.90;88.40;;;;;;5052244;28;20104;-76
2020/12/31 05:38:57;;;;;;;6.43;4.88;;;-3275.90;88.10;;;;;;5052331;28;20021;-77
2020/12/31 05:41:24;;;;;;;7.68;4.40;;;-3275.90;88.20;;;;;;5034150;28;20121;-76
2020/12/31 05:43:54;;;;;;;8.43;4.75;;;-3275.90;88.20;;;;;;5051920;28;20075;-77
2020/12/31 05:46:20;;;;;;;6.70;5.18;;;-3275.90;88.10;;;;;;5052250;28;20029;-77
2020/12/31 05:49:05;;;;;;;7.65;4.80;;;-3275.90;88.40;;;;;;5051807;28;20032;-78
2020/12/31 05:51:31;;;;;;;5.57;4.32;;;-3276.10;88.40;;;;;;5052021;28;20029;-77
2020/12/31 05:54:11;;;;;;;7.65;5.47;;;-3276.20;88.00;;;;;;5053612;28;20468;-77
2020/12/31 05:56:39;;;;;;;7.55;4.50;;;-3276.20;87.90;;;;;;5037886;28;20032;-77
2020/12/31 05:59:19;;;;;;;4.68;3.80;;;-3276.20;87.50;;;;;;5055890;28;20070;-76
2020/12/31 06:01:58;;;;;;;4.57;3.90;;;-3276.10;87.30;;;;;;5055693;28;20025;-76
2020/12/31 06:04:30;;;;;;;6.47;3.90;;;-3276.30;87.20;;;;;;5055551;28;20503;-76
2020/12/31 06:07:01;;;;;;;4.40;3.53;;;-3276.40;86.60;;;;;;5055553;28;20628;-77
2020/12/31 06:09:31;;;;;;;5.97;4.03;;;-3276.40;86.20;;;;;;5055431;28;20047;-77
2020/12/31 06:12:06;;;;;;;5.35;3.45;;;-3276.40;86.20;;;;;;5055079;28;20029;-76
2020/12/31 06:14:33;;;;;;;5.72;3.70;;;-3276.40;85.90;;;;;;5055475;28;20044;-76
2020/12/31 06:17:03;;;;;;;5.90;4.25;;;-3276.40;85.70;;;;;;5055269;28;20025;-77
2020/12/31 06:19:36;;;;;;;5.73;3.87;;;-3276.40;85.60;;;;;;5055400;28;20021;-76
2020/12/31 06:22:09;;;;;;;8.05;3.60;;;-3276.40;85.60;;;;;;5055495;28;20044;-77
2020/12/31 06:24:42;;;;;;;5.20;3.78;;;-3276.40;85.60;;;;;;5055230;28;20032;-78
2020/12/31 06:27:13;;;;;;;6.18;3.70;;;-3276.30;85.50;;;;;;5036953;28;20028;-77
2020/12/31 06:29:44;;;;;;;8.63;4.57;;;-3276.30;85.70;;;;;;5062589;22;20431;-77
2020/12/31 06:32:35;;;;;;;8.77;4.93;;;-3276.20;85.80;;;;;;5037051;28;20032;-77
2020/12/31 06:35:04;;;;;;;17.95;9.75;;;-3276.20;86.20;;;;;;5055003;28;20068;-76
2020/12/31 06:37:31;;;;;;;123.57;53.30;;;-3276.20;86.70;;;;;;5037218;28;20056;-76
2020/12/31 06:40:22;;;;;;;154.68;67.55;;;-3276.30;87.00;;;;;;5036739;28;20032;-76
2020/12/31 06:43:33;;;;;;;14.50;8.60;;;-3276.30;87.30;;;;;;5051245;28;20032;-77
2020/12/31 06:45:59;;;;;;;;;;;-3276.20;87.10;;;;;;4974182;28;20041;-77
2020/12/31 06:48:25;;;;;;;10.63;7.13;;;-3276.20;87.10;;;;;;5043513;28;20337;-76
2020/12/31 06:51:00;;;;;;;11.02;7.20;;;-3276.20;87.60;;;;;;5054711;28;20031;-77
2020/12/31 06:53:35;;;;;;;13.90;8.05;;;-3276.20;87.20;;;;;;5036693;28;20063;-77
2020/12/31 06:56:05;;;;;;;16.10;8.70;;;-3276.20;88.00;;;;;;5036631;28;20402;-78
2020/12/31 06:58:31;;;;;;;13.15;8.13;;;-3276.10;88.20;;;;;;5054562;28;20021;-78
2020/12/31 07:00:58;;;;;;;17.63;9.95;;;-3276.00;88.00;;;;;;5054350;28;20172;-78
2020/12/31 07:03:41;;;;;;;22.88;9.77;;;-3275.90;88.30;;;;;;5054443;28;20032;-78
2020/12/31 07:06:25;;;;;;;19.58;10.73;;;-3275.90;89.00;;;;;;5053563;28;20021;-78
2020/12/31 07:08:52;;;;;;;24.00;10.77;;;-3275.90;88.90;;;;;;5054364;28;20104;-78
2020/12/31 07:11:56;;;;;;;18.27;11.43;;;-3275.90;89.40;;;;;;5036539;28;20052;-78
2020/12/31 07:14:23;;;;;;;17.60;11.13;;;-3276.00;89.70;;;;;;5038820;28;20048;-78
2020/12/31 07:16:56;;;;;;;18.05;9.90;;;-3276.00;89.80;;;;;;5035271;28;20056;-78
2020/12/31 07:19:40;;;;;;;17.35;11.10;;;-3276.10;89.30;;;;;;5034871;28;20175;-78
2020/12/31 07:22:21;;;;;;;19.30;11.45;;;-3276.10;89.30;;;;;;5035881;28;20044;-78
2020/12/31 07:25:10;;;;;;;13.98;8.27;;;-3276.10;89.30;;;;;;5053988;28;20082;-78
2020/12/31 07:27:38;;;;;;;17.77;11.32;;;-3276.20;89.10;;;;;;5054153;28;20133;-77
2020/12/31 07:30:07;;;;;;;16.55;10.93;;;-3276.10;88.70;;;;;;5053901;28;20112;-78
2020/12/31 07:33:01;;;;;;;17.65;11.13;;;-3276.10;89.30;;;;;;5053982;28;20029;-78
2020/12/31 07:35:39;;;;;;;19.77;11.55;;;-3276.20;89.50;;;;;;5035952;28;20037;-78
2020/12/31 07:38:12;;;;;;;21.25;11.13;;;-3276.20;88.90;;;;;;5035662;28;20032;-78
2020/12/31 07:40:47;;;;;;;20.02;12.40;;;-3276.30;89.00;;;;;;5053499;28;20056;-78
2020/12/31 07:43:26;;;;;;;18.85;11.90;;;-3276.30;88.70;;;;;;5053531;28;20073;-78
2020/12/31 07:45:55;;;;;;;19.02;11.57;;;-3276.40;88.40;;;;;;5053501;28;20460;-78
2020/12/31 07:48:23;;;;;;;20.00;11.20;;;-3276.70;87.80;;;;;;5053353;28;20033;-78
2020/12/31 07:50:56;;;;;;;15.50;10.48;;;0.00;87.40;;;;;;5035503;28;20025;-78
2020/12/31 07:53:22;;;;;;;16.25;9.95;;;0.20;85.70;;;;;;5053184;28;20563;-78
2020/12/31 07:55:49;;;;;;;16.58;9.60;;;0.40;84.80;;;;;;5035343;28;20041;-80
2020/12/31 07:58:29;;;;;;;15.57;9.05;;;0.50;84.80;;;;;;5053021;28;20036;-79
2020/12/31 08:01:05;;;;;;;16.25;10.00;;;0.70;84.10;;;;;;5034145;28;20025;-79
2020/12/31 08:03:31;;;;;;;15.43;8.60;;;1.20;82.90;;;;;;5035348;28;20033;-79
2020/12/31 08:06:04;;;;;;;13.57;8.07;;;1.80;80.60;;;;;;5052828;28;20051;-78
2020/12/31 08:08:31;;;;;;;11.07;7.30;;;1.80;79.00;;;;;;5035292;28;20078;-78
2020/12/31 08:10:57;;;;;;;12.75;8.00;;;1.70;79.60;;;;;;5052945;28;20029;-78
2020/12/31 08:13:23;;;;;;;13.88;8.55;;;1.70;79.30;;;;;;5034797;28;20033;-78
2020/12/31 08:15:49;;;;;;;12.88;8.77;;;1.50;79.20;;;;;;5052783;28;20064;-78
2020/12/31 08:18:15;;;;;;;14.10;9.20;;;1.80;78.90;;;;;;5052079;28;20036;-78
2020/12/31 08:20:42;;;;;;;14.65;9.75;;;1.90;78.60;;;;;;5052918;28;20087;-77
2020/12/31 08:23:17;;;;;;;14.88;9.38;;;1.70;78.10;;;;;;5052516;28;20083;-79
2020/12/31 08:25:45;;;;;;;13.77;9.52;;;1.40;80.00;;;;;;5052237;28;20096;-78
2020/12/31 08:28:16;;;;;;;16.10;9.75;;;1.70;79.40;;;;;;5051981;28;20102;-77
2020/12/31 08:30:42;;;;;;;15.43;9.85;;;1.70;79.10;;;;;;5052859;28;20357;-71
2020/12/31 08:33:10;;;;;;;15.45;10.07;;;2.00;80.30;;;;;;5053488;28;20051;-82
2020/12/31 08:35:41;;;;;;;19.83;11.38;;;2.20;78.90;;;;;;5068752;28;20028;-72
2020/12/31 08:38:19;;;;;;;15.57;11.00;;;2.20;77.90;;;;;;5058886;28;20051;-71
2020/12/31 08:40:49;;;;;;;19.45;10.77;;;2.20;78.60;;;;;;5060295;28;20492;-70
2020/12/31 08:43:29;;;;;;;15.68;10.60;;;2.20;79.60;;;;;;5055490;28;20017;-69
2020/12/31 08:45:57;;;;;;;25.40;11.60;;;2.10;79.20;;;;;;5024060;28;20036;-69
2020/12/31 08:48:23;;;;;;;18.90;10.98;;;2.20;79.70;;;;;;5063796;28;20380;-69
2020/12/31 08:51:10;;;;;;;18.35;11.65;;;2.10;79.90;;;;;;5064315;28;20109;-69
2020/12/31 08:53:52;;;;;;;17.75;11.57;;;2.10;80.60;;;;;;5037329;28;20503;-69
2020/12/31 08:56:20;;;;;;;17.90;12.00;;;2.40;80.00;;;;;;5063744;28;20099;-70
2020/12/31 08:58:45;;;;;;;22.13;13.55;;;2.50;78.70;;;;;;5063688;28;20514;-70
2020/12/31 09:01:27;;;;;;;20.35;13.50;;;2.70;79.60;;;;;;5056365;28;20056;-70
2020/12/31 09:04:07;;;;;;;21.85;12.95;;;2.60;78.70;;;;;;5041681;28;20055;-71
2020/12/31 09:06:33;;;;;;;19.45;13.00;;;2.50;79.50;;;;;;5054285;28;20359;-71
2020/12/31 09:08:58;;;;;;;19.20;12.55;;;2.50;79.10;;;;;;5063857;28;20032;-71
2020/12/31 09:11:25;;;;;;;23.25;13.65;;;2.60;79.10;;;;;;5055523;28;20383;-71
2020/12/31 09:13:51;;;;;;;18.40;12.60;;;2.60;79.40;;;;;;5067487;28;20433;-69
2020/12/31 09:16:17;;;;;;;19.60;13.50;;;2.70;78.60;;;;;;5059527;28;20025;-70
2020/12/31 09:18:43;;;;;;;23.02;13.88;;;2.70;79.30;;;;;;5060321;28;20021;-69
2020/12/31 09:21:10;;;;;;;22.23;14.80;;;2.90;78.40;;;;;;5046774;28;20099;-72
2020/12/31 09:23:37;;;;;;;21.77;13.13;;;2.90;78.20;;;;;;5050549;28;20081;-71
2020/12/31 09:26:03;;;;;;;24.73;14.45;;;3.10;78.70;;;;;;5059115;28;20025;-70
2020/12/31 09:28:30;;;;;;;22.45;14.50;;;3.20;77.60;;;;;;5063243;28;20107;-70
2020/12/31 09:30:56;;;;;;;23.40;14.75;;;3.40;77.70;;;;;;5050916;28;20025;-71
2020/12/31 09:33:24;;;;;;;24.77;16.45;;;3.50;76.90;;;;;;5071687;28;20100;-70
2020/12/31 09:35:50;;;;;;;24.58;15.77;;;3.60;76.90;;;;;;5040410;28;20032;-70
2020/12/31 09:38:17;;;;;;;26.10;16.77;;;3.60;77.20;;;;;;5067716;28;20025;-70
2020/12/31 09:40:43;;;;;;;25.58;16.30;;;3.60;77.80;;;;;;5064882;28;20036;-71
2020/12/31 09:43:11;;;;;;;25.25;16.13;;;3.60;77.20;;;;;;5052867;28;20021;-70
2020/12/31 09:45:38;;;;;;;26.63;16.95;;;3.50;77.10;;;;;;5027015;28;20079;-70
2020/12/31 09:48:05;;;;;;;26.88;17.52;;;3.30;77.70;;;;;;5068849;28;20128;-70
2020/12/31 09:50:31;;;;;;;25.88;17.02;;;3.30;78.20;;;;;;5064716;28;20488;-70
2020/12/31 09:52:58;;;;;;;25.10;15.60;;;3.10;78.10;;;;;;5061751;28;20549;-70
2020/12/31 09:55:25;;;;;;;26.70;16.58;;;3.00;78.60;;;;;;5071314;28;20085;-70
2020/12/31 09:57:51;;;;;;;25.95;16.15;;;2.90;79.10;;;;;;5059314;28;20045;-70
2020/12/31 10:00:17;;;;;;;25.33;17.15;;;3.00;79.10;;;;;;5067014;28;20032;-70
2020/12/31 10:02:43;;;;;;;26.67;16.50;;;3.00;79.00;;;;;;5066444;28;20482;-70
2020/12/31 10:05:09;;;;;;;29.50;17.60;;;2.80;79.20;;;;;;5059815;28;20044;-70
2020/12/31 10:07:35;;;;;;;23.33;15.63;;;2.80;79.40;;;;;;5041506;28;20021;-71
2020/12/31 10:10:00;;;;;;;25.70;16.33;;;3.00;79.20;;;;;;5069779;28;20522;-70
2020/12/31 10:12:26;;;;;;;26.23;16.33;;;3.00;79.00;;;;;;5064131;28;20157;-70
2020/12/31 10:14:53;;;;;;;25.73;15.38;;;3.00;78.70;;;;;;5058787;28;20510;-71
2020/12/31 10:17:19;;;;;;;25.88;15.52;;;3.10;78.90;;;;;;5054237;28;20083;-71
2020/12/31 10:19:45;;;;;;;24.50;16.05;;;3.10;78.20;;;;;;5053298;28;20490;-70
2020/12/31 10:22:11;;;;;;;19.63;13.70;;;3.20;77.90;;;;;;5069263;28;20471;-70
2020/12/31 10:24:36;;;;;;;24.00;15.10;;;3.30;77.60;;;;;;5064795;28;20074;-70
2020/12/31 10:27:03;;;;;;;24.23;15.05;;;3.30;77.90;;;;;;5069325;28;20020;-70
2020/12/31 10:29:28;;;;;;;23.48;15.18;;;3.40;77.20;;;;;;5040323;28;20048;-71
2020/12/31 10:31:55;;;;;;;22.35;14.07;;;3.50;76.50;;;;;;5070262;28;20032;-73
2020/12/31 10:34:22;;;;;;;18.95;12.90;;;3.50;76.60;;;;;;5063237;28;20060;-72
2020/12/31 10:36:56;;;;;;;19.70;12.98;;;3.50;75.50;;;;;;5044206;28;20446;-74
2020/12/31 10:39:22;;;;;;;17.02;11.93;;;3.50;76.00;;;;;;5070279;28;20034;-75
2020/12/31 10:41:49;;;;;;;18.80;11.85;;;3.60;75.60;;;;;;5057270;28;20120;-75
2020/12/31 10:44:15;;;;;;;20.85;12.38;;;3.60;74.90;;;;;;5061694;28;20372;-75
2020/12/31 10:46:41;;;;;;;22.65;12.45;;;3.60;75.10;;;;;;5062977;28;20045;-74
2020/12/31 10:49:07;;;;;;;20.77;12.90;;;3.60;75.50;;;;;;5069290;28;20028;-74
2020/12/31 10:51:37;;;;;;;23.33;14.52;;;3.60;75.30;;;;;;5057677;28;20051;-76
2020/12/31 10:54:07;;;;;;;22.50;13.88;;;3.60;76.20;;;;;;5049808;28;20479;-72
2020/12/31 10:56:34;;;;;;;25.40;13.73;;;3.60;75.80;;;;;;5063904;28;20056;-73
2020/12/31 10:59:00;;;;;;;19.65;12.77;;;3.60;75.80;;;;;;5060219;28;20489;-77
2020/12/31 11:01:25;;;;;;;19.33;11.63;;;3.60;75.00;;;;;;5068887;28;20206;-77
2020/12/31 11:03:51;;;;;;;20.23;13.25;;;3.60;74.80;;;;;;5057854;28;20463;-81
2020/12/31 11:06:25;;;;;;;18.15;11.95;;;3.70;74.60;;;;;;5065575;28;20361;-76
2020/12/31 11:08:52;;;;;;;21.17;13.60;;;3.80;75.00;;;;;;5048079;28;20062;-76
2020/12/31 11:11:20;;;;;;;19.17;11.32;;;3.80;74.70;;;;;;5057043;28;20071;-78
2020/12/31 11:13:45;;;;;;;16.10;10.65;;;3.90;74.60;;;;;;5041083;28;20055;-75
2020/12/31 11:16:11;;;;;;;17.17;11.18;;;4.00;73.80;;;;;;5066681;28;20435;-74
2020/12/31 11:18:39;;;;;;;15.23;10.02;;;4.10;73.10;;;;;;5054367;28;20040;-74
2020/12/31 11:21:04;;;;;;;13.48;9.02;;;4.10;72.50;;;;;;5061630;28;20029;-75
2020/12/31 11:23:30;;;;;;;14.93;9.13;;;4.00;72.40;;;;;;5051994;28;20036;-74
2020/12/31 11:25:56;;;;;;;7.13;4.50;;;4.20;70.00;;;;;;5058254;28;20057;-75
2020/12/31 11:28:21;;;;;;;10.43;7.22;;;4.30;68.30;;;;;;5042850;28;20049;-74
2020/12/31 11:30:48;;;;;;;20.77;13.70;;;4.40;67.90;;;;;;5045500;28;20025;-74
2020/12/31 11:33:13;;;;;;;13.73;8.68;;;4.50;68.20;;;;;;5036866;28;20021;-74
2020/12/31 11:35:39;;;;;;;5.30;3.78;;;4.50;68.10;;;;;;5049807;28;20056;-75
2020/12/31 11:38:04;;;;;;;13.20;7.57;;;4.60;66.40;;;;;;5039334;28;20507;-74
2020/12/31 11:40:30;;;;;;;8.30;5.57;;;4.80;65.70;;;;;;5043284;28;20052;-75
2020/12/31 11:42:56;;;;;;;14.50;8.57;;;4.80;66.10;;;;;;5036422;28;20024;-75
2020/12/31 11:45:21;;;;;;;6.65;4.45;;;4.80;66.20;;;;;;5032111;28;20506;-75
2020/12/31 11:47:47;;;;;;;15.45;9.02;;;4.80;64.00;;;;;;5036277;28;20537;-75
2020/12/31 11:50:13;;;;;;;6.22;4.25;;;4.80;65.90;;;;;;5045571;28;20044;-75
2020/12/31 11:52:38;;;;;;;15.48;9.32;;;4.90;64.80;;;;;;5043628;28;20090;-75
2020/12/31 11:55:05;;;;;;;18.35;11.05;;;4.90;66.20;;;;;;5038501;28;20287;-74
2020/12/31 11:57:31;;;;;;;8.20;5.63;;;4.80;66.50;;;;;;5049333;28;20029;-75
2020/12/31 11:59:57;;;;;;;10.82;7.03;;;4.90;66.40;;;;;;5037937;28;20094;-74
2020/12/31 12:02:23;;;;;;;8.45;5.78;;;4.90;65.90;;;;;;5044283;28;20029;-74
2020/12/31 12:04:48;;;;;;;10.30;6.63;;;5.00;66.10;;;;;;5044926;28;20069;-75
2020/12/31 12:07:14;;;;;;;8.52;6.30;;;5.00;65.40;;;;;;5036949;28;20030;-74
2020/12/31 12:09:41;;;;;;;8.38;5.32;;;4.90;66.00;;;;;;5049218;28;20040;-77
2020/12/31 12:12:08;;;;;;;12.25;8.02;;;4.90;66.70;;;;;;5039006;28;20032;-75
2020/12/31 12:14:34;;;;;;;11.90;7.70;;;5.00;66.20;;;;;;5042363;28;20476;-76
2020/12/31 12:17:01;;;;;;;6.72;4.60;;;4.90;66.40;;;;;;5046453;28;20051;-75
2020/12/31 12:19:27;;;;;;;14.43;7.57;;;4.90;65.40;;;;;;5036139;28;20060;-75
2020/12/31 12:21:58;;;;;;;13.85;7.85;;;4.90;66.90;;;;;;5050834;28;20437;-80
2020/12/31 12:24:24;;;;;;;11.63;6.60;;;4.90;66.80;;;;;;5043694;28;20056;-73
2020/12/31 12:26:50;;;;;;;6.65;5.18;;;4.90;66.30;;;;;;5044788;28;20033;-75
2020/12/31 12:29:15;;;;;;;7.30;4.65;;;4.90;66.30;;;;;;5051339;28;20151;-74
2020/12/31 12:31:41;;;;;;;12.27;7.40;;;4.90;66.10;;;;;;5069027;28;20430;-74
2020/12/31 12:34:07;;;;;;;12.70;7.65;;;4.80;66.50;;;;;;5058430;28;20026;-74
2020/12/31 12:36:34;;;;;;;6.93;4.50;;;4.80;67.00;;;;;;5062139;28;20162;-75
2020/12/31 12:39:00;;;;;;;9.73;6.32;;;4.70;65.90;;;;;;5047814;28;20459;-76
2020/12/31 12:41:26;;;;;;;58.13;30.55;;;4.70;66.50;;;;;;5055392;28;20029;-75
2020/12/31 12:43:52;;;;;;;26.08;13.95;;;4.70;66.90;;;;;;5058493;28;20020;-77
2020/12/31 12:46:19;;;;;;;574.55;355.70;;;4.70;66.70;;;;;;5063928;28;20480;-75